Time;durP1;ratioP1;P1;durP2;ratioP2;P2;SDS_P1;SDS_P2;PMS_P1;PMS_P2;Temp;Humidity;BMP_temperature;BMP_pressure;BME280_temperature;BME280_humidity;BME280_pressure;Samples;Min_cycle;Max_cycle;Signal;HPM_P1;HPM_P2
2023/07/23 00:01:25;;;;;;;5.27;4.90;;;20.50;99.90;;;;;;4996405;28;20578;-60
2023/07/23 00:03:50;;;;;;;5.43;5.03;;;20.50;99.90;;;;;;4996132;28;20210;-62
2023/07/23 00:06:18;;;;;;;5.30;4.80;;;20.50;99.90;;;;;;4996687;28;20612;-62
2023/07/23 00:08:46;;;;;;;6.10;5.67;;;20.50;99.90;;;;;;4994642;28;20180;-62
2023/07/23 00:11:12;;;;;;;5.90;5.50;;;20.40;99.90;;;;;;4995735;28;20425;-62
2023/07/23 00:13:38;;;;;;;5.83;5.17;;;20.40;99.90;;;;;;4993389;28;20533;-62
2023/07/23 00:16:04;;;;;;;5.93;5.53;;;20.40;99.90;;;;;;4996500;28;20172;-62
2023/07/23 00:18:30;;;;;;;5.70;5.30;;;20.40;99.90;;;;;;4995245;28;20175;-62
2023/07/23 00:20:55;;;;;;;5.80;5.27;;;20.40;99.90;;;;;;4995947;28;20496;-62
2023/07/23 00:23:21;;;;;;;5.57;5.23;;;20.40;99.90;;;;;;4992714;28;20199;-62
2023/07/23 00:25:47;;;;;;;6.10;5.57;;;20.40;99.90;;;;;;4994596;28;20176;-62
2023/07/23 00:28:13;;;;;;;6.20;5.60;;;20.40;99.90;;;;;;4996362;28;20175;-62
2023/07/23 00:30:38;;;;;;;5.67;5.27;;;20.40;99.90;;;;;;4995151;28;20786;-62
2023/07/23 00:33:04;;;;;;;5.60;5.20;;;20.40;99.90;;;;;;4996118;28;20581;-62
2023/07/23 00:35:30;;;;;;;5.90;5.50;;;20.40;99.90;;;;;;4995059;28;20226;-61
2023/07/23 00:37:56;;;;;;;6.67;6.07;;;20.40;99.90;;;;;;4995662;28;20891;-62
2023/07/23 00:40:22;;;;;;;6.70;6.10;;;20.40;99.90;;;;;;4996029;28;20266;-62
2023/07/23 00:42:47;;;;;;;7.80;5.80;;;20.40;99.90;;;;;;4994348;28;20175;-62
2023/07/23 00:45:13;;;;;;;7.03;6.43;;;20.30;99.90;;;;;;4995144;28;20188;-62
2023/07/23 00:47:39;;;;;;;5.97;5.50;;;20.10;99.90;;;;;;4995052;28;20168;-62
2023/07/23 00:50:05;;;;;;;6.47;5.80;;;20.00;99.90;;;;;;4995691;28;20238;-62
2023/07/23 00:52:31;;;;;;;6.77;6.17;;;19.90;99.90;;;;;;4994096;28;20184;-60
2023/07/23 00:54:57;;;;;;;6.47;5.97;;;19.90;99.90;;;;;;4977617;28;20445;-62
2023/07/23 00:57:23;;;;;;;7.37;5.87;;;19.90;99.90;;;;;;4995243;28;20168;-61
2023/07/23 00:59:48;;;;;;;6.20;5.70;;;19.90;99.90;;;;;;4993196;28;20247;-62
2023/07/23 01:02:14;;;;;;;6.43;5.80;;;19.90;99.90;;;;;;4993995;28;20179;-62
2023/07/23 01:04:40;;;;;;;7.20;5.90;;;19.90;99.90;;;;;;4984888;28;20224;-62
2023/07/23 01:07:07;;;;;;;6.50;5.90;;;19.90;99.90;;;;;;4976055;28;20176;-62
2023/07/23 01:09:36;;;;;;;6.27;5.73;;;20.00;99.90;;;;;;4975181;28;20176;-61
2023/07/23 01:12:03;;;;;;;6.00;5.50;;;19.90;99.90;;;;;;4976175;28;20737;-62
2023/07/23 01:14:29;;;;;;;5.83;5.33;;;20.00;99.90;;;;;;4980147;28;20423;-61
2023/07/23 01:16:57;;;;;;;6.50;6.00;;;20.00;99.90;;;;;;4994520;28;20431;-62
2023/07/23 01:19:26;;;;;;;6.67;5.93;;;20.00;99.90;;;;;;4994168;28;20509;-63
2023/07/23 01:21:56;;;;;;;6.93;6.37;;;20.00;99.90;;;;;;4993303;28;20423;-62
2023/07/23 01:24:21;;;;;;;6.90;6.30;;;20.10;99.90;;;;;;4994318;28;20470;-62
2023/07/23 01:26:47;;;;;;;6.40;5.90;;;20.10;99.90;;;;;;4994351;28;20411;-62
2023/07/23 01:29:13;;;;;;;7.00;6.30;;;20.10;99.90;;;;;;4994804;28;20176;-62
2023/07/23 01:31:38;;;;;;;6.03;5.63;;;20.10;99.90;;;;;;4993816;28;20184;-62
2023/07/23 01:34:05;;;;;;;5.90;5.40;;;20.20;99.90;;;;;;4993106;28;20206;-62
2023/07/23 01:36:31;;;;;;;7.07;6.43;;;20.20;99.90;;;;;;4993963;28;20227;-61
2023/07/23 01:38:57;;;;;;;6.90;6.30;;;20.20;99.90;;;;;;4994477;28;20482;-62
2023/07/23 01:41:22;;;;;;;6.90;6.30;;;20.10;99.90;;;;;;4994439;28;20574;-62
2023/07/23 01:43:51;;;;;;;6.80;6.20;;;20.10;99.90;;;;;;4993923;28;20716;-62
2023/07/23 01:46:17;;;;;;;6.27;5.77;;;20.10;99.90;;;;;;4994756;28;20403;-62
2023/07/23 01:48:42;;;;;;;6.80;6.30;;;20.10;99.90;;;;;;4993457;28;20750;-62
2023/07/23 01:51:10;;;;;;;7.20;6.30;;;20.10;99.90;;;;;;4993456;28;20238;-62
2023/07/23 01:53:35;;;;;;;6.30;5.73;;;20.10;99.90;;;;;;4992760;28;20214;-62
2023/07/23 01:56:01;;;;;;;7.37;6.63;;;20.20;99.90;;;;;;4993777;28;20879;-62
2023/07/23 01:58:27;;;;;;;6.77;6.17;;;20.20;99.90;;;;;;4993519;28;20172;-62
2023/07/23 02:01:04;;;;;;;7.23;6.63;;;20.20;99.90;;;;;;4993690;28;20176;-62
2023/07/23 02:03:30;;;;;;;7.30;6.70;;;20.20;99.90;;;;;;4993504;28;20286;-62
2023/07/23 02:05:58;;;;;;;6.73;6.13;;;20.20;99.90;;;;;;4992529;28;20438;-62
2023/07/23 02:08:24;;;;;;;6.47;5.97;;;20.10;99.90;;;;;;4994555;28;20502;-62
2023/07/23 02:10:50;;;;;;;6.53;6.03;;;20.10;99.90;;;;;;4993493;28;20522;-62
2023/07/23 02:13:16;;;;;;;7.43;6.70;;;20.10;99.90;;;;;;4993057;28;20242;-62
2023/07/23 02:15:41;;;;;;;6.87;6.37;;;20.10;99.90;;;;;;4993374;28;20262;-62
2023/07/23 02:18:07;;;;;;;6.70;6.20;;;20.10;99.90;;;;;;4993835;28;20451;-62
2023/07/23 02:20:33;;;;;;;6.67;6.17;;;20.10;99.90;;;;;;4993618;28;20176;-61
2023/07/23 02:22:59;;;;;;;7.27;6.63;;;20.20;99.90;;;;;;4990979;28;20176;-62
2023/07/23 02:25:25;;;;;;;7.17;6.57;;;20.20;99.90;;;;;;4992562;28;20953;-61
2023/07/23 02:27:50;;;;;;;10.23;6.50;;;20.20;99.90;;;;;;4991558;28;20188;-62
2023/07/23 02:30:16;;;;;;;6.90;6.40;;;20.20;99.90;;;;;;4993171;28;20657;-62
2023/07/23 02:32:42;;;;;;;6.40;6.00;;;20.20;99.90;;;;;;4993091;28;20176;-62
2023/07/23 02:35:08;;;;;;;7.40;6.70;;;20.20;99.90;;;;;;4993279;28;20242;-62
2023/07/23 02:37:33;;;;;;;6.63;6.03;;;20.20;99.90;;;;;;4993661;28;20183;-61
2023/07/23 02:40:03;;;;;;;6.30;5.80;;;20.20;99.90;;;;;;4993285;28;20595;-62
2023/07/23 02:42:29;;;;;;;6.80;6.30;;;20.10;99.90;;;;;;4993812;28;20176;-62
2023/07/23 02:44:55;;;;;;;6.63;6.13;;;20.10;99.90;;;;;;4992813;28;20973;-62
2023/07/23 02:47:20;;;;;;;6.63;6.13;;;20.10;99.90;;;;;;4993281;28;20191;-62
2023/07/23 02:49:46;;;;;;;7.17;6.57;;;20.10;99.90;;;;;;4992744;28;20180;-62
2023/07/23 02:52:12;;;;;;;7.37;6.83;;;20.10;99.90;;;;;;4991997;28;20194;-62
2023/07/23 02:54:38;;;;;;;6.93;6.33;;;20.10;99.90;;;;;;4992076;28;21005;-61
2023/07/23 02:57:04;;;;;;;7.17;6.67;;;20.10;99.90;;;;;;4993909;28;20403;-62
2023/07/23 02:59:30;;;;;;;6.87;6.37;;;20.10;99.90;;;;;;4991769;28;20623;-62
2023/07/23 03:01:55;;;;;;;7.73;6.60;;;20.10;99.90;;;;;;4988631;28;20429;-62
2023/07/23 03:04:26;;;;;;;6.60;6.17;;;20.10;99.90;;;;;;4991619;28;20299;-62
2023/07/23 03:06:52;;;;;;;7.60;6.67;;;20.10;99.90;;;;;;4992413;28;20198;-63
2023/07/23 03:09:18;;;;;;;6.47;5.97;;;20.10;99.90;;;;;;4993248;28;20411;-62
2023/07/23 03:11:44;;;;;;;7.33;6.70;;;20.10;99.90;;;;;;4992402;28;20411;-61
2023/07/23 03:14:10;;;;;;;7.30;6.63;;;20.10;99.90;;;;;;4993246;28;20211;-62
2023/07/23 03:16:36;;;;;;;6.40;5.90;;;20.10;99.90;;;;;;4992416;28;20179;-61
2023/07/23 03:19:02;;;;;;;7.13;6.53;;;20.10;99.90;;;;;;4991391;28;20642;-63
2023/07/23 03:21:28;;;;;;;7.70;7.10;;;20.10;99.90;;;;;;4991758;28;20432;-62
2023/07/23 03:23:53;;;;;;;7.13;6.63;;;20.10;99.90;;;;;;4992209;28;20199;-62
2023/07/23 03:26:19;;;;;;;6.93;6.23;;;20.20;99.90;;;;;;4992014;28;20183;-62
2023/07/23 03:28:45;;;;;;;9.03;6.73;;;20.10;98.50;;;;;;4992222;28;20179;-62
2023/07/23 03:31:11;;;;;;;7.63;6.83;;;20.10;96.20;;;;;;4992726;28;20218;-62
2023/07/23 03:33:37;;;;;;;6.83;6.33;;;20.00;95.80;;;;;;4992830;28;20183;-61
2023/07/23 03:36:03;;;;;;;7.07;6.50;;;20.00;97.40;;;;;;4974628;28;20958;-63
2023/07/23 03:38:29;;;;;;;6.67;6.17;;;20.10;95.30;;;;;;4992621;28;20179;-62
2023/07/23 03:40:55;;;;;;;7.97;7.00;;;20.10;94.00;;;;;;4991260;28;20423;-63
2023/07/23 03:43:21;;;;;;;7.03;6.27;;;20.10;95.90;;;;;;4992130;28;20452;-62
2023/07/23 03:45:47;;;;;;;6.23;5.80;;;20.20;94.60;;;;;;4991894;28;20541;-62
2023/07/23 03:48:12;;;;;;;7.37;6.87;;;20.20;94.20;;;;;;4991025;28;20206;-63
2023/07/23 03:50:38;;;;;;;6.63;6.13;;;20.20;92.90;;;;;;4992596;28;20176;-60
2023/07/23 03:53:04;;;;;;;7.07;6.47;;;20.20;93.00;;;;;;4991424;28;20184;-63
2023/07/23 03:55:29;;;;;;;6.43;6.03;;;20.20;92.50;;;;;;4992910;28;20695;-62
2023/07/23 03:57:55;;;;;;;9.77;6.87;;;20.10;92.50;;;;;;4990553;28;20178;-62
2023/07/23 04:00:21;;;;;;;6.87;6.30;;;20.10;92.80;;;;;;4992391;28;20171;-62
2023/07/23 04:02:48;;;;;;;7.33;6.63;;;20.20;92.50;;;;;;4991221;28;20176;-61
2023/07/23 04:05:13;;;;;;;6.57;6.07;;;20.20;92.20;;;;;;4991263;28;20212;-62
2023/07/23 04:07:39;;;;;;;7.10;6.17;;;20.20;92.50;;;;;;4992541;28;20447;-61
2023/07/23 04:10:05;;;;;;;6.50;6.00;;;20.20;92.10;;;;;;4991906;28;20210;-62
2023/07/23 04:12:33;;;;;;;6.80;6.17;;;20.20;92.30;;;;;;4992608;28;20171;-62
2023/07/23 04:15:01;;;;;;;6.80;6.30;;;20.10;92.00;;;;;;4991510;28;20970;-62
2023/07/23 04:17:27;;;;;;;5.73;5.33;;;20.20;91.90;;;;;;4991818;28;20431;-62
2023/07/23 04:19:53;;;;;;;7.10;6.50;;;20.10;91.70;;;;;;4992000;28;20414;-62
2023/07/23 04:22:18;;;;;;;6.40;5.90;;;20.30;92.20;;;;;;4991618;28;20183;-62
2023/07/23 04:24:44;;;;;;;6.20;5.80;;;20.30;91.80;;;;;;4991662;28;20568;-61
2023/07/23 04:27:10;;;;;;;6.60;6.10;;;20.30;92.10;;;;;;4975102;28;20195;-62
2023/07/23 04:29:35;;;;;;;6.63;6.13;;;20.40;92.10;;;;;;4973045;28;20238;-62
2023/07/23 04:32:01;;;;;;;7.50;6.90;;;20.30;92.00;;;;;;4972236;28;20430;-62
2023/07/23 04:34:27;;;;;;;7.27;6.70;;;20.40;92.20;;;;;;4984408;28;20583;-62
2023/07/23 04:36:53;;;;;;;6.33;5.93;;;20.40;91.90;;;;;;4992805;28;20664;-62
2023/07/23 04:39:19;;;;;;;6.80;6.17;;;20.30;91.50;;;;;;4995214;28;20635;-62
2023/07/23 04:41:45;;;;;;;5.90;5.40;;;20.30;91.80;;;;;;4995162;28;20179;-60
2023/07/23 04:44:11;;;;;;;5.70;5.30;;;20.30;91.80;;;;;;4993851;28;20969;-62
2023/07/23 04:46:37;;;;;;;5.87;5.43;;;20.20;91.40;;;;;;4994098;28;20426;-62
2023/07/23 04:49:02;;;;;;;5.70;5.30;;;20.20;91.70;;;;;;4994834;28;20210;-62
2023/07/23 04:51:28;;;;;;;6.90;6.37;;;20.20;91.50;;;;;;4993792;28;20195;-61
2023/07/23 04:53:54;;;;;;;6.43;5.97;;;20.20;91.60;;;;;;4993354;28;20208;-62
2023/07/23 04:56:19;;;;;;;7.03;6.37;;;20.30;91.70;;;;;;4994863;28;20198;-62
2023/07/23 04:58:45;;;;;;;7.10;6.50;;;20.20;91.30;;;;;;4994849;28;20182;-60
2023/07/23 05:01:12;;;;;;;6.00;5.60;;;20.30;91.80;;;;;;4991207;28;20233;-62
2023/07/23 05:03:39;;;;;;;6.43;5.83;;;20.30;92.00;;;;;;4995198;28;20210;-62
2023/07/23 05:06:05;;;;;;;6.20;5.70;;;20.30;91.40;;;;;;4994121;28;21062;-62
2023/07/23 05:08:33;;;;;;;6.77;6.17;;;20.40;91.50;;;;;;4995458;28;20418;-62
2023/07/23 05:11:03;;;;;;;5.87;5.37;;;20.40;91.60;;;;;;4990259;28;20423;-62
2023/07/23 05:13:30;;;;;;;7.33;6.77;;;20.30;91.40;;;;;;4994896;28;20585;-62
2023/07/23 05:15:58;;;;;;;8.90;8.00;;;20.30;91.90;;;;;;4994485;28;20419;-62
2023/07/23 05:18:24;;;;;;;6.03;5.53;;;20.40;92.00;;;;;;4994383;28;20493;-62
2023/07/23 05:20:50;;;;;;;6.13;5.63;;;20.40;91.30;;;;;;4986242;28;20428;-62
2023/07/23 05:23:17;;;;;;;6.90;6.30;;;20.40;91.80;;;;;;4989915;28;20466;-61
2023/07/23 05:25:43;;;;;;;6.60;6.10;;;20.50;91.50;;;;;;4986535;28;20647;-60
2023/07/23 05:28:10;;;;;;;6.13;5.73;;;20.50;91.50;;;;;;4989528;28;20434;-62
2023/07/23 05:30:36;;;;;;;6.03;5.53;;;20.60;91.50;;;;;;4984416;28;20427;-61
2023/07/23 05:33:02;;;;;;;5.60;5.20;;;20.60;91.50;;;;;;4994043;28;20506;-61
2023/07/23 05:35:27;;;;;;;6.43;6.03;;;20.70;91.40;;;;;;4994233;28;20211;-61
2023/07/23 05:37:53;;;;;;;6.77;6.17;;;20.70;91.30;;;;;;4992667;28;20180;-61
2023/07/23 05:40:20;;;;;;;6.30;5.70;;;20.80;91.40;;;;;;4994894;28;20190;-61
2023/07/23 05:42:46;;;;;;;6.60;6.07;;;20.80;91.00;;;;;;4993823;28;20552;-60
2023/07/23 05:45:13;;;;;;;6.57;6.07;;;20.90;90.90;;;;;;4993757;28;20466;-61
2023/07/23 05:47:38;;;;;;;7.33;6.73;;;20.90;91.10;;;;;;4994258;28;20883;-61
2023/07/23 05:50:05;;;;;;;8.33;5.97;;;21.00;91.40;;;;;;4993687;28;21035;-61
2023/07/23 05:52:30;;;;;;;6.00;5.50;;;21.00;90.40;;;;;;4990634;28;20191;-61
2023/07/23 05:54:56;;;;;;;5.57;5.17;;;21.00;91.20;;;;;;4990475;28;20426;-61
2023/07/23 05:57:24;;;;;;;6.83;6.17;;;21.00;91.30;;;;;;4985881;28;20670;-61
2023/07/23 05:59:50;;;;;;;5.50;5.10;;;21.00;90.70;;;;;;4993061;28;20187;-60
2023/07/23 06:02:15;;;;;;;5.73;5.10;;;21.10;90.60;;;;;;4994743;28;20410;-61
2023/07/23 06:04:41;;;;;;;6.10;5.60;;;21.10;91.00;;;;;;4993274;28;20215;-61
2023/07/23 06:07:07;;;;;;;6.03;5.50;;;21.10;90.70;;;;;;4991694;28;20707;-61
2023/07/23 06:09:33;;;;;;;6.33;5.83;;;21.10;90.80;;;;;;4989797;28;20179;-63
2023/07/23 06:11:58;;;;;;;6.50;6.00;;;21.10;90.90;;;;;;4993223;28;20425;-61
2023/07/23 06:14:24;;;;;;;7.27;5.10;;;21.20;91.10;;;;;;4991752;28;20184;-64
2023/07/23 06:16:50;;;;;;;5.53;5.13;;;21.10;90.00;;;;;;4991645;28;20204;-62
2023/07/23 06:19:16;;;;;;;6.67;6.17;;;21.10;90.30;;;;;;4988706;28;20176;-60
2023/07/23 06:21:41;;;;;;;7.00;6.40;;;21.00;90.60;;;;;;4990037;28;20188;-61
2023/07/23 06:24:07;;;;;;;5.53;5.13;;;21.10;91.70;;;;;;4987662;28;20203;-61
2023/07/23 06:26:33;;;;;;;5.37;4.87;;;21.20;91.00;;;;;;4992835;28;20207;-61
2023/07/23 06:28:58;;;;;;;6.60;6.00;;;21.20;90.40;;;;;;4981299;28;20184;-60
2023/07/23 06:31:24;;;;;;;6.27;5.77;;;21.20;90.70;;;;;;4990674;28;20171;-61
2023/07/23 06:33:50;;;;;;;5.60;5.10;;;21.20;90.30;;;;;;4992562;28;20183;-61
2023/07/23 06:36:15;;;;;;;5.87;5.30;;;21.20;90.80;;;;;;4981113;28;20682;-61
2023/07/23 06:38:41;;;;;;;6.17;5.77;;;21.10;90.50;;;;;;4992172;28;20188;-62
2023/07/23 06:41:07;;;;;;;4.97;4.67;;;21.10;91.00;;;;;;4985058;28;20187;-61
2023/07/23 06:43:33;;;;;;;11.73;5.80;;;21.00;90.60;;;;;;4980672;28;20371;-68
2023/07/23 06:46:00;;;;;;;6.97;6.27;;;21.00;90.80;;;;;;4992351;28;20458;-67
2023/07/23 06:48:28;;;;;;;6.13;5.60;;;21.10;93.20;;;;;;4993197;28;20878;-68
2023/07/23 06:50:55;;;;;;;5.40;5.00;;;21.10;93.00;;;;;;4991151;28;20282;-67
2023/07/23 06:53:21;;;;;;;5.73;5.33;;;21.10;90.80;;;;;;4993035;28;20450;-68
2023/07/23 06:56:07;;;;;;;9.10;8.30;;;21.20;92.70;;;;;;4993329;28;20461;-68
2023/07/23 06:58:35;;;;;;;6.43;5.93;;;21.30;92.20;;;;;;4993881;28;20175;-68
2023/07/23 07:01:02;;;;;;;5.40;4.93;;;21.10;91.90;;;;;;4992236;28;20426;-68
2023/07/23 07:03:28;;;;;;;5.30;4.90;;;21.30;91.70;;;;;;4993020;28;20463;-67
2023/07/23 07:05:54;;;;;;;5.80;5.30;;;21.40;90.80;;;;;;4992653;28;20411;-67
2023/07/23 07:08:19;;;;;;;6.60;6.00;;;21.40;92.50;;;;;;4993078;28;20203;-68
2023/07/23 07:10:49;;;;;;;9.27;8.33;;;21.40;91.90;;;;;;4992448;28;20176;-68
2023/07/23 07:13:15;;;;;;;5.63;5.20;;;21.60;91.60;;;;;;4988809;28;20477;-68
2023/07/23 07:15:41;;;;;;;10.60;9.60;;;21.60;91.30;;;;;;4992788;28;20403;-68
2023/07/23 07:18:07;;;;;;;7.40;6.70;;;21.50;91.80;;;;;;4992187;28;20406;-68
2023/07/23 07:20:33;;;;;;;6.63;5.90;;;21.30;91.10;;;;;;4992648;28;20415;-67
2023/07/23 07:22:59;;;;;;;5.30;4.90;;;21.40;91.30;;;;;;4991790;28;20434;-67
2023/07/23 07:25:25;;;;;;;10.73;8.30;;;21.40;90.30;;;;;;4992809;28;20490;-68
2023/07/23 07:27:51;;;;;;;6.40;5.67;;;21.40;91.30;;;;;;4992621;28;20246;-64
2023/07/23 07:30:17;;;;;;;5.90;5.40;;;21.50;90.10;;;;;;4992308;28;20176;-68
2023/07/23 07:32:42;;;;;;;5.47;5.07;;;21.60;91.30;;;;;;4992427;28;20933;-68
2023/07/23 07:35:08;;;;;;;7.30;6.60;;;21.70;88.10;;;;;;4991526;28;20306;-68
2023/07/23 07:37:34;;;;;;;24.50;19.87;;;21.70;88.40;;;;;;4990149;28;20172;-71
2023/07/23 07:40:00;;;;;;;10.83;9.90;;;21.60;88.70;;;;;;4991571;28;20922;-77
2023/07/23 07:42:26;;;;;;;9.33;7.23;;;21.60;87.80;;;;;;4992403;28;20226;-72
2023/07/23 07:44:52;;;;;;;4.83;4.53;;;21.60;88.50;;;;;;4991883;28;20192;-73
2023/07/23 07:47:18;;;;;;;5.90;5.30;;;21.60;87.80;;;;;;4992247;28;20442;-72
2023/07/23 07:49:43;;;;;;;5.53;5.13;;;21.60;88.50;;;;;;4992635;28;20172;-72
2023/07/23 07:52:11;;;;;;;12.33;11.10;;;21.60;87.80;;;;;;4991544;28;20307;-72
2023/07/23 07:54:37;;;;;;;7.90;7.20;;;21.70;90.20;;;;;;4992714;28;20179;-73
2023/07/23 07:57:03;;;;;;;9.00;7.00;;;21.80;89.00;;;;;;4991934;28;20407;-72
2023/07/23 07:59:29;;;;;;;11.33;10.33;;;21.80;89.10;;;;;;4992465;28;20403;-72
2023/07/23 08:01:56;;;;;;;8.30;7.60;;;21.80;90.20;;;;;;4991218;28;20442;-72
2023/07/23 08:04:22;;;;;;;6.70;6.10;;;21.80;88.70;;;;;;4992039;28;20458;-72
2023/07/23 08:06:48;;;;;;;13.83;9.03;;;21.60;89.00;;;;;;4992358;28;20411;-74
2023/07/23 08:09:18;;;;;;;11.07;9.90;;;21.50;90.90;;;;;;4991908;28;20414;-74
2023/07/23 08:11:48;;;;;;;6.50;6.00;;;21.50;91.10;;;;;;4991406;28;20397;-75
2023/07/23 08:14:15;;;;;;;13.00;10.57;;;21.40;90.60;;;;;;4995525;28;21067;-74
2023/07/23 08:16:41;;;;;;;59.93;52.47;;;21.40;91.90;;;;;;4993321;28;20498;-76
2023/07/23 08:19:08;;;;;;;38.73;32.57;;;21.30;91.80;;;;;;4995587;28;20978;-76
2023/07/23 08:21:34;;;;;;;11.33;9.10;;;21.40;91.80;;;;;;4996090;28;20774;-75
2023/07/23 08:24:00;;;;;;;5.70;5.30;;;21.10;92.30;;;;;;4995023;28;20815;-75
2023/07/23 08:26:29;;;;;;;6.90;6.30;;;21.10;92.00;;;;;;4995859;28;20415;-74
2023/07/23 08:29:01;;;;;;;43.13;33.83;;;21.00;92.30;;;;;;4995340;28;20501;-76
2023/07/23 08:31:27;;;;;;;43.80;39.37;;;21.10;92.30;;;;;;4994090;28;20430;-74
2023/07/23 08:33:55;;;;;;;11.00;10.00;;;21.10;92.00;;;;;;4995513;28;21286;-73
2023/07/23 08:36:21;;;;;;;5.30;4.90;;;21.10;92.20;;;;;;4995537;28;20509;-75
2023/07/23 08:38:47;;;;;;;4.73;4.33;;;20.90;92.70;;;;;;4995649;28;20407;-75
2023/07/23 08:41:26;;;;;;;5.03;4.73;;;20.90;93.00;;;;;;4994761;28;20411;-75
2023/07/23 08:44:15;;;;;;;4.90;4.60;;;20.60;92.90;;;;;;4994522;28;20438;-73
2023/07/23 08:46:45;;;;;;;4.90;4.40;;;20.60;93.50;;;;;;4995456;28;20465;-76
2023/07/23 08:49:11;;;;;;;5.27;4.77;;;20.60;94.60;;;;;;4994649;28;20507;-76
2023/07/23 08:51:47;;;;;;;4.57;4.13;;;20.60;94.40;;;;;;4995351;28;20468;-75
2023/07/23 08:54:19;;;;;;;5.03;4.73;;;20.40;94.30;;;;;;4994893;28;20419;-75
2023/07/23 08:56:44;;;;;;;5.07;4.77;;;20.40;94.80;;;;;;4993103;28;20406;-76
2023/07/23 08:59:11;;;;;;;5.20;4.80;;;20.30;95.00;;;;;;4993328;28;20772;-74
2023/07/23 09:01:39;;;;;;;5.90;5.40;;;20.20;95.10;;;;;;4994917;28;20183;-75
2023/07/23 09:04:10;;;;;;;4.60;4.20;;;20.40;95.60;;;;;;4991904;28;20499;-75
2023/07/23 09:06:36;;;;;;;4.10;3.80;;;20.40;94.80;;;;;;4995156;28;20422;-75
2023/07/23 09:09:07;;;;;;;5.17;4.63;;;20.00;95.50;;;;;;4994068;28;20769;-74
2023/07/23 09:11:34;;;;;;;4.43;4.13;;;20.00;96.70;;;;;;4995087;28;20241;-76
2023/07/23 09:14:01;;;;;;;4.23;4.03;;;20.10;96.80;;;;;;4994555;28;20411;-75
2023/07/23 09:16:27;;;;;;;3.97;3.77;;;20.40;96.70;;;;;;4994867;28;20411;-76
2023/07/23 09:18:53;;;;;;;5.97;4.67;;;20.50;96.00;;;;;;4994900;28;20438;-76
2023/07/23 09:21:23;;;;;;;4.40;4.20;;;20.40;95.80;;;;;;4994518;28;20418;-75
2023/07/23 09:23:53;;;;;;;4.77;4.37;;;20.40;96.30;;;;;;4994480;28;20663;-74
2023/07/23 09:26:26;;;;;;;4.60;4.13;;;20.30;96.40;;;;;;4994191;28;20400;-75
2023/07/23 09:28:54;;;;;;;4.33;4.03;;;20.10;96.50;;;;;;4995112;28;20395;-76
2023/07/23 09:31:31;;;;;;;4.00;3.77;;;19.80;98.00;;;;;;4994251;28;20490;-74
2023/07/23 09:33:59;;;;;;;5.30;4.90;;;19.60;99.20;;;;;;4994381;28;20489;-74
2023/07/23 09:36:26;;;;;;;5.10;4.80;;;19.30;99.90;;;;;;4990539;28;20809;-76
2023/07/23 09:39:03;;;;;;;11.30;10.20;;;19.30;99.90;;;;;;4994666;28;20836;-75
2023/07/23 09:41:32;;;;;;;12.50;11.30;;;19.20;99.90;;;;;;4992477;28;20940;-75
2023/07/23 09:44:10;;;;;;;15.23;13.63;;;19.30;99.90;;;;;;4994270;28;20953;-76
2023/07/23 09:46:38;;;;;;;5.47;5.07;;;19.70;99.90;;;;;;4994737;28;20434;-75
2023/07/23 09:49:04;;;;;;;6.00;5.60;;;19.60;99.90;;;;;;4993948;28;20403;-74
2023/07/23 09:51:33;;;;;;;5.63;5.33;;;19.20;99.90;;;;;;4994387;28;20469;-73
2023/07/23 09:54:03;;;;;;;6.77;6.17;;;19.20;99.90;;;;;;4993796;28;20419;-74
2023/07/23 09:56:29;;;;;;;5.90;5.53;;;19.20;99.90;;;;;;4993855;28;20422;-74
2023/07/23 09:58:57;;;;;;;5.83;5.40;;;19.50;99.90;;;;;;4994016;28;20419;-73
2023/07/23 10:01:26;;;;;;;6.10;5.70;;;19.60;99.90;;;;;;4993940;28;20418;-73
2023/07/23 10:03:53;;;;;;;5.47;4.97;;;19.60;99.90;;;;;;4994131;28;20842;-62
2023/07/23 10:06:23;;;;;;;4.77;4.47;;;19.70;99.90;;;;;;4993286;28;20528;-62
2023/07/23 10:08:50;;;;;;;5.13;4.83;;;19.70;99.90;;;;;;4993979;28;20432;-62
2023/07/23 10:11:17;;;;;;;5.30;5.00;;;19.60;99.90;;;;;;4993561;28;20439;-63
2023/07/23 10:13:44;;;;;;;5.53;5.20;;;19.60;99.90;;;;;;4993057;28;20415;-63
2023/07/23 10:16:24;;;;;;;4.70;4.40;;;19.60;99.90;;;;;;4993337;28;20461;-63
2023/07/23 10:18:51;;;;;;;4.43;4.13;;;19.60;99.90;;;;;;4994234;28;20469;-63
2023/07/23 10:21:19;;;;;;;4.40;4.10;;;19.50;99.90;;;;;;4993768;28;20926;-62
2023/07/23 10:23:58;;;;;;;4.07;3.87;;;19.50;99.90;;;;;;4993109;28;20865;-62
2023/07/23 10:26:26;;;;;;;5.13;4.70;;;19.40;99.90;;;;;;4993020;28;20407;-62
2023/07/23 10:29:18;;;;;;;6.10;5.73;;;19.40;99.90;;;;;;4994109;28;20411;-62
2023/07/23 10:31:45;;;;;;;6.00;5.70;;;19.30;99.90;;;;;;4994049;28;20967;-62
2023/07/23 10:34:23;;;;;;;5.73;5.33;;;19.40;99.90;;;;;;4991473;28;20775;-63
2023/07/23 10:37:14;;;;;;;5.10;4.43;;;19.40;99.90;;;;;;4994555;28;21012;-62
2023/07/23 10:39:42;;;;;;;5.80;5.30;;;19.40;99.90;;;;;;4994229;28;20407;-62
2023/07/23 10:42:08;;;;;;;5.53;5.10;;;19.60;99.90;;;;;;4993249;28;20442;-63
2023/07/23 10:44:38;;;;;;;5.00;4.60;;;19.70;99.90;;;;;;4993814;28;20489;-63
2023/07/23 10:47:45;;;;;;;4.90;4.50;;;19.80;99.90;;;;;;4993719;28;20415;-63
2023/07/23 10:50:12;;;;;;;4.93;4.60;;;20.00;99.90;;;;;;4895239;29;20442;-63
2023/07/23 10:52:38;;;;;;;5.07;4.77;;;20.10;99.90;;;;;;4979102;28;20433;-62
2023/07/23 10:55:07;;;;;;;5.10;4.70;;;20.10;99.90;;;;;;4975922;28;20453;-62
2023/07/23 10:57:38;;;;;;;5.60;5.10;;;20.20;99.90;;;;;;4993860;28;20473;-61
2023/07/23 11:00:17;;;;;;;4.40;4.10;;;20.30;99.90;;;;;;4993295;28;20399;-62
2023/07/23 11:02:48;;;;;;;4.40;4.10;;;20.20;99.90;;;;;;4992603;28;20395;-62
2023/07/23 11:05:15;;;;;;;4.37;4.07;;;20.10;99.90;;;;;;4993215;28;20561;-62
2023/07/23 11:07:41;;;;;;;4.43;4.13;;;20.10;99.90;;;;;;4993610;28;20414;-61
2023/07/23 11:10:22;;;;;;;4.43;4.13;;;20.30;99.90;;;;;;4993095;28;20486;-62
2023/07/23 11:12:48;;;;;;;4.90;4.60;;;20.40;99.90;;;;;;4993647;28;20270;-62
2023/07/23 11:15:15;;;;;;;5.93;5.50;;;20.60;99.90;;;;;;4991768;28;20486;-63
2023/07/23 11:17:41;;;;;;;5.37;4.97;;;20.50;99.90;;;;;;4992406;28;20172;-61
2023/07/23 11:20:07;;;;;;;5.10;4.80;;;20.40;99.90;;;;;;4992930;28;20942;-62
2023/07/23 11:22:33;;;;;;;5.00;4.70;;;20.50;99.90;;;;;;4993492;28;20175;-62
2023/07/23 11:24:58;;;;;;;4.47;4.27;;;20.40;99.90;;;;;;4993356;28;20442;-62
2023/07/23 11:27:24;;;;;;;3.80;3.60;;;20.40;99.90;;;;;;4992790;28;20172;-61
2023/07/23 11:29:50;;;;;;;4.77;4.47;;;20.40;99.90;;;;;;4993348;28;20164;-61
2023/07/23 11:32:16;;;;;;;3.93;3.73;;;20.40;99.90;;;;;;4992731;28;20589;-62
2023/07/23 11:34:42;;;;;;;6.63;4.20;;;20.50;99.90;;;;;;4992887;28;20172;-63
2023/07/23 11:37:10;;;;;;;4.60;4.30;;;20.50;99.90;;;;;;4992779;28;20814;-64
2023/07/23 11:39:35;;;;;;;5.03;4.73;;;20.60;99.90;;;;;;4992950;28;20262;-62
2023/07/23 11:42:01;;;;;;;4.47;4.03;;;20.70;99.90;;;;;;4993249;28;20494;-62
2023/07/23 11:44:27;;;;;;;3.83;3.63;;;20.80;99.90;;;;;;4992845;28;20229;-63
2023/07/23 11:47:03;;;;;;;5.80;5.50;;;20.90;99.90;;;;;;4998207;28;20418;-62
2023/07/23 11:49:29;;;;;;;4.37;4.07;;;20.70;99.90;;;;;;4999726;28;20616;-61
2023/07/23 11:51:58;;;;;;;4.07;3.63;;;20.70;99.90;;;;;;4999525;28;20418;-62
2023/07/23 11:54:24;;;;;;;3.67;3.47;;;20.50;99.90;;;;;;4998820;28;20415;-62
2023/07/23 11:56:50;;;;;;;4.10;3.90;;;20.50;99.90;;;;;;4999650;28;20414;-62
2023/07/23 11:59:18;;;;;;;3.70;3.30;;;20.50;99.90;;;;;;4999010;28;20183;-75
2023/07/23 12:01:44;;;;;;;4.03;3.73;;;20.50;99.90;;;;;;4999523;28;20171;-76
2023/07/23 12:04:10;;;;;;;4.43;4.10;;;20.30;99.90;;;;;;4998799;28;20800;-74
2023/07/23 12:06:38;;;;;;;4.07;3.80;;;20.10;99.90;;;;;;4998306;28;20713;-75
2023/07/23 12:09:11;;;;;;;4.20;4.00;;;20.00;99.90;;;;;;4997225;28;20407;-74
2023/07/23 12:11:42;;;;;;;4.60;4.00;;;20.00;99.90;;;;;;4997872;28;20406;-76
2023/07/23 12:14:13;;;;;;;10.63;9.63;;;19.80;99.90;;;;;;4998521;28;20399;-75
2023/07/23 12:16:42;;;;;;;17.40;15.70;;;19.80;99.90;;;;;;4996486;28;20399;-74
2023/07/23 12:19:11;;;;;;;4.30;4.00;;;19.80;99.90;;;;;;4998469;28;20933;-75
2023/07/23 12:21:40;;;;;;;4.63;4.33;;;20.10;99.90;;;;;;4999024;28;20789;-74
2023/07/23 12:24:19;;;;;;;5.40;5.00;;;20.30;99.90;;;;;;4998558;28;20457;-74
2023/07/23 12:26:48;;;;;;;4.10;3.90;;;20.40;99.90;;;;;;4997779;28;20414;-76
2023/07/23 12:29:14;;;;;;;4.27;3.93;;;20.40;99.90;;;;;;4991951;28;20469;-74
2023/07/23 12:31:42;;;;;;;3.80;3.60;;;20.50;99.90;;;;;;4997623;28;20546;-74
2023/07/23 12:34:13;;;;;;;3.47;3.27;;;20.50;99.90;;;;;;4998147;28;20582;-73
2023/07/23 12:36:39;;;;;;;3.83;3.63;;;20.40;99.90;;;;;;4999017;28;20807;-77
2023/07/23 12:39:06;;;;;;;3.47;3.27;;;20.40;99.90;;;;;;4998650;28;20407;-72
2023/07/23 12:41:33;;;;;;;3.23;3.03;;;20.50;99.90;;;;;;4997492;28;20902;-75
2023/07/23 12:43:59;;;;;;;3.80;3.60;;;20.30;99.90;;;;;;4997566;28;20451;-74
2023/07/23 12:46:25;;;;;;;3.70;3.50;;;20.30;99.90;;;;;;4996999;28;20465;-73